sensor_id;sensor_type;location;lat;lon;timestamp;temperature;humidity
76120;DHT22;64852;48.092;-1.640;2022-11-15T00:00:30;14.20;99.90
76120;DHT22;64852;48.092;-1.640;2022-11-15T00:02:56;14.10;99.90
76120;DHT22;64852;48.092;-1.640;2022-11-15T00:05:21;14.10;99.90
76120;DHT22;64852;48.092;-1.640;2022-11-15T00:07:47;14.10;99.90
76120;DHT22;64852;48.092;-1.640;2022-11-15T00:10:13;14.00;99.90
76120;DHT22;64852;48.092;-1.640;2022-11-15T00:12:38;14.00;99.90
76120;DHT22;64852;48.092;-1.640;2022-11-15T00:15:04;14.00;99.90
76120;DHT22;64852;48.092;-1.640;2022-11-15T00:17:30;14.10;99.90
76120;DHT22;64852;48.092;-1.640;2022-11-15T00:19:56;14.10;99.90
76120;DHT22;64852;48.092;-1.640;2022-11-15T00:22:22;14.10;99.90
76120;DHT22;64852;48.092;-1.640;2022-11-15T00:24:47;14.20;99.90
76120;DHT22;64852;48.092;-1.640;2022-11-15T00:27:13;14.20;99.90
76120;DHT22;64852;48.092;-1.640;2022-11-15T00:29:38;14.10;99.90
76120;DHT22;64852;48.092;-1.640;2022-11-15T00:32:11;14.20;99.90
76120;DHT22;64852;48.092;-1.640;2022-11-15T00:34:37;14.20;99.90
76120;DHT22;64852;48.092;-1.640;2022-11-15T00:37:03;14.20;99.90
76120;DHT22;64852;48.092;-1.640;2022-11-15T00:39:28;14.30;99.90
76120;DHT22;64852;48.092;-1.640;2022-11-15T00:41:54;14.30;99.90
76120;DHT22;64852;48.092;-1.640;2022-11-15T00:44:19;14.20;99.90
76120;DHT22;64852;48.092;-1.640;2022-11-15T00:46:45;14.30;99.90
76120;DHT22;64852;48.092;-1.640;2022-11-15T00:49:11;14.30;99.90
76120;DHT22;64852;48.092;-1.640;2022-11-15T00:51:36;14.40;99.90
76120;DHT22;64852;48.092;-1.640;2022-11-15T00:54:02;14.40;99.90
76120;DHT22;64852;48.092;-1.640;2022-11-15T00:56:28;14.40;99.90
76120;DHT22;64852;48.092;-1.640;2022-11-15T00:58:53;14.40;99.90
76120;DHT22;64852;48.092;-1.640;2022-11-15T01:01:19;14.50;99.90
76120;DHT22;64852;48.092;-1.640;2022-11-15T01:03:45;14.50;99.90
76120;DHT22;64852;48.092;-1.640;2022-11-15T01:06:10;14.50;99.90
76120;DHT22;64852;48.092;-1.640;2022-11-15T01:08:40;14.50;99.90
76120;DHT22;64852;48.092;-1.640;2022-11-15T01:11:08;14.50;99.90
76120;DHT22;64852;48.092;-1.640;2022-11-15T01:13:36;14.60;99.90
76120;DHT22;64852;48.092;-1.640;2022-11-15T01:16:14;14.50;99.90
76120;DHT22;64852;48.092;-1.640;2022-11-15T01:18:41;14.60;99.90
76120;DHT22;64852;48.092;-1.640;2022-11-15T01:21:08;14.60;99.90
76120;DHT22;64852;48.092;-1.640;2022-11-15T01:23:34;14.40;99.90
76120;DHT22;64852;48.092;-1.640;2022-11-15T01:26:02;14.40;99.90
76120;DHT22;64852;48.092;-1.640;2022-11-15T01:28:33;14.60;99.90
76120;DHT22;64852;48.092;-1.640;2022-11-15T01:31:04;14.60;99.90
76120;DHT22;64852;48.092;-1.640;2022-11-15T01:33:30;14.70;99.90
76120;DHT22;64852;48.092;-1.640;2022-11-15T01:35:56;14.60;99.90
76120;DHT22;64852;48.092;-1.640;2022-11-15T01:38:22;14.70;99.90
76120;DHT22;64852;48.092;-1.640;2022-11-15T01:40:48;14.70;99.90
76120;DHT22;64852;48.092;-1.640;2022-11-15T01:45:52;14.70;99.90
76120;DHT22;64852;48.092;-1.640;2022-11-15T01:48:20;14.80;99.90
76120;DHT22;64852;48.092;-1.640;2022-11-15T01:50:47;14.80;99.90
76120;DHT22;64852;48.092;-1.640;2022-11-15T01:53:12;14.70;99.90
76120;DHT22;64852;48.092;-1.640;2022-11-15T01:55:38;14.60;99.90
76120;DHT22;64852;48.092;-1.640;2022-11-15T01:58:04;14.60;99.90
76120;DHT22;64852;48.092;-1.640;2022-11-15T02:00:31;14.70;99.90
76120;DHT22;64852;48.092;-1.640;2022-11-15T02:02:57;14.70;99.90
76120;DHT22;64852;48.092;-1.640;2022-11-15T02:05:23;14.80;99.90
76120;DHT22;64852;48.092;-1.640;2022-11-15T02:07:49;14.80;99.90
76120;DHT22;64852;48.092;-1.640;2022-11-15T02:10:20;14.90;99.90
76120;DHT22;64852;48.092;-1.640;2022-11-15T02:12:46;14.90;99.90
76120;DHT22;64852;48.092;-1.640;2022-11-15T02:15:12;14.90;99.90
76120;DHT22;64852;48.092;-1.640;2022-11-15T02:36:59;15.00;99.90
76120;DHT22;64852;48.092;-1.640;2022-11-15T02:39:31;15.00;99.90
76120;DHT22;64852;48.092;-1.640;2022-11-15T02:42:06;15.10;99.90
76120;DHT22;64852;48.092;-1.640;2022-11-15T02:44:53;15.00;99.90
76120;DHT22;64852;48.092;-1.640;2022-11-15T02:47:22;15.00;99.90
76120;DHT22;64852;48.092;-1.640;2022-11-15T02:49:53;14.80;99.90
76120;DHT22;64852;48.092;-1.640;2022-11-15T02:52:23;14.90;99.90
76120;DHT22;64852;48.092;-1.640;2022-11-15T02:54:55;14.90;99.90
76120;DHT22;64852;48.092;-1.640;2022-11-15T02:57:39;14.70;99.90
76120;DHT22;64852;48.092;-1.640;2022-11-15T03:00:31;14.80;99.90
76120;DHT22;64852;48.092;-1.640;2022-11-15T03:06:20;14.80;99.90
76120;DHT22;64852;48.092;-1.640;2022-11-15T03:11:30;14.90;99.90
76120;DHT22;64852;48.092;-1.640;2022-11-15T03:19:02;14.90;99.90
76120;DHT22;64852;48.092;-1.640;2022-11-15T03:21:31;14.90;99.90
76120;DHT22;64852;48.092;-1.640;2022-11-15T03:24:00;14.90;99.90
76120;DHT22;64852;48.092;-1.640;2022-11-15T03:26:29;15.00;99.90
76120;DHT22;64852;48.092;-1.640;2022-11-15T03:29:04;15.10;99.90
76120;DHT22;64852;48.092;-1.640;2022-11-15T03:31:34;14.90;99.90
76120;DHT22;64852;48.092;-1.640;2022-11-15T03:37:17;14.80;99.90
76120;DHT22;64852;48.092;-1.640;2022-11-15T03:39:46;14.90;99.90
76120;DHT22;64852;48.092;-1.640;2022-11-15T03:42:22;14.90;99.90
76120;DHT22;64852;48.092;-1.640;2022-11-15T03:47:49;15.00;99.90
76120;DHT22;64852;48.092;-1.640;2022-11-15T03:50:20;15.00;99.90
76120;DHT22;64852;48.092;-1.640;2022-11-15T03:52:47;14.90;99.90
76120;DHT22;64852;48.092;-1.640;2022-11-15T03:55:17;15.00;99.90
76120;DHT22;64852;48.092;-1.640;2022-11-15T03:57:43;14.90;99.90
76120;DHT22;64852;48.092;-1.640;2022-11-15T04:00:10;14.90;99.90
76120;DHT22;64852;48.092;-1.640;2022-11-15T04:02:36;14.90;99.90
76120;DHT22;64852;48.092;-1.640;2022-11-15T04:05:02;14.90;99.90
76120;DHT22;64852;48.092;-1.640;2022-11-15T04:07:27;14.90;99.90
76120;DHT22;64852;48.092;-1.640;2022-11-15T04:09:53;15.00;99.90
76120;DHT22;64852;48.092;-1.640;2022-11-15T04:12:32;15.00;99.90
76120;DHT22;64852;48.092;-1.640;2022-11-15T04:15:11;15.10;99.90
76120;DHT22;64852;48.092;-1.640;2022-11-15T04:17:40;15.00;99.90
76120;DHT22;64852;48.092;-1.640;2022-11-15T04:22:57;15.00;99.90
76120;DHT22;64852;48.092;-1.640;2022-11-15T04:25:42;14.90;99.90
76120;DHT22;64852;48.092;-1.640;2022-11-15T04:28:08;14.90;99.90
76120;DHT22;64852;48.092;-1.640;2022-11-15T04:30:34;14.80;99.90
76120;DHT22;64852;48.092;-1.640;2022-11-15T04:32:59;14.90;99.90
76120;DHT22;64852;48.092;-1.640;2022-11-15T04:35:25;14.80;99.90
76120;DHT22;64852;48.092;-1.640;2022-11-15T04:37:51;14.80;99.90
76120;DHT22;64852;48.092;-1.640;2022-11-15T04:40:16;14.70;99.90
76120;DHT22;64852;48.092;-1.640;2022-11-15T04:42:42;14.80;99.90
76120;DHT22;64852;48.092;-1.640;2022-11-15T04:45:08;14.90;99.90
76120;DHT22;64852;48.092;-1.640;2022-11-15T04:47:34;14.90;99.90
76120;DHT22;64852;48.092;-1.640;2022-11-15T04:50:00;14.90;99.90
76120;DHT22;64852;48.092;-1.640;2022-11-15T04:52:26;14.80;99.90
76120;DHT22;64852;48.092;-1.640;2022-11-15T04:54:52;14.80;99.90
76120;DHT22;64852;48.092;-1.640;2022-11-15T04:57:18;14.80;99.90
76120;DHT22;64852;48.092;-1.640;2022-11-15T04:59:43;14.80;99.90
76120;DHT22;64852;48.092;-1.640;2022-11-15T05:02:09;14.80;99.90
76120;DHT22;64852;48.092;-1.640;2022-11-15T05:04:34;14.80;99.90
76120;DHT22;64852;48.092;-1.640;2022-11-15T05:07:00;14.90;99.90
76120;DHT22;64852;48.092;-1.640;2022-11-15T05:09:26;14.80;99.90
76120;DHT22;64852;48.092;-1.640;2022-11-15T05:11:51;14.80;99.90
76120;DHT22;64852;48.092;-1.640;2022-11-15T05:14:17;14.90;99.90
76120;DHT22;64852;48.092;-1.640;2022-11-15T05:16:43;14.80;99.90
76120;DHT22;64852;48.092;-1.640;2022-11-15T05:19:09;14.70;99.90
76120;DHT22;64852;48.092;-1.640;2022-11-15T05:21:35;14.80;99.90
76120;DHT22;64852;48.092;-1.640;2022-11-15T05:24:01;14.80;99.90
76120;DHT22;64852;48.092;-1.640;2022-11-15T05:26:26;14.80;99.90
76120;DHT22;64852;48.092;-1.640;2022-11-15T05:28:53;14.80;99.90
76120;DHT22;64852;48.092;-1.640;2022-11-15T05:31:19;14.70;99.90
76120;DHT22;64852;48.092;-1.640;2022-11-15T05:33:45;14.60;99.90
76120;DHT22;64852;48.092;-1.640;2022-11-15T05:36:38;14.70;99.90
76120;DHT22;64852;48.092;-1.640;2022-11-15T05:39:06;14.80;99.90
76120;DHT22;64852;48.092;-1.640;2022-11-15T05:41:47;14.90;99.90
76120;DHT22;64852;48.092;-1.640;2022-11-15T05:44:17;14.80;99.90
76120;DHT22;64852;48.092;-1.640;2022-11-15T05:46:43;14.70;99.90
76120;DHT22;64852;48.092;-1.640;2022-11-15T05:49:12;14.70;99.90
76120;DHT22;64852;48.092;-1.640;2022-11-15T05:51:39;14.60;99.90
76120;DHT22;64852;48.092;-1.640;2022-11-15T05:54:05;14.60;99.90
76120;DHT22;64852;48.092;-1.640;2022-11-15T05:56:31;14.70;99.90
76120;DHT22;64852;48.092;-1.640;2022-11-15T05:58:57;14.70;99.90
76120;DHT22;64852;48.092;-1.640;2022-11-15T06:01:25;13.10;99.90
76120;DHT22;64852;48.092;-1.640;2022-11-15T06:03:51;14.60;99.90
76120;DHT22;64852;48.092;-1.640;2022-11-15T06:06:17;14.60;99.90
76120;DHT22;64852;48.092;-1.640;2022-11-15T06:08:42;14.50;99.90
76120;DHT22;64852;48.092;-1.640;2022-11-15T06:11:08;14.50;99.90
76120;DHT22;64852;48.092;-1.640;2022-11-15T06:13:34;14.40;99.90
76120;DHT22;64852;48.092;-1.640;2022-11-15T06:16:00;14.50;99.90
76120;DHT22;64852;48.092;-1.640;2022-11-15T06:18:26;14.60;99.90
76120;DHT22;64852;48.092;-1.640;2022-11-15T06:20:51;14.60;99.90
76120;DHT22;64852;48.092;-1.640;2022-11-15T06:23:17;14.70;99.90
76120;DHT22;64852;48.092;-1.640;2022-11-15T06:25:43;14.60;99.90
76120;DHT22;64852;48.092;-1.640;2022-11-15T06:28:09;14.60;99.90
76120;DHT22;64852;48.092;-1.640;2022-11-15T06:30:34;14.70;99.90
76120;DHT22;64852;48.092;-1.640;2022-11-15T06:33:01;14.50;99.90
76120;DHT22;64852;48.092;-1.640;2022-11-15T06:35:27;14.40;99.90
76120;DHT22;64852;48.092;-1.640;2022-11-15T06:37:53;14.50;99.90
76120;DHT22;64852;48.092;-1.640;2022-11-15T06:40:18;14.60;99.90
76120;DHT22;64852;48.092;-1.640;2022-11-15T06:42:44;14.60;99.90
76120;DHT22;64852;48.092;-1.640;2022-11-15T06:45:09;14.60;99.90
76120;DHT22;64852;48.092;-1.640;2022-11-15T06:47:35;14.60;99.90
76120;DHT22;64852;48.092;-1.640;2022-11-15T06:50:01;14.70;99.90
76120;DHT22;64852;48.092;-1.640;2022-11-15T06:52:26;14.60;99.90
76120;DHT22;64852;48.092;-1.640;2022-11-15T06:54:57;14.70;99.90
76120;DHT22;64852;48.092;-1.640;2022-11-15T06:57:23;14.60;99.90
76120;DHT22;64852;48.092;-1.640;2022-11-15T06:59:49;14.60;99.90
76120;DHT22;64852;48.092;-1.640;2022-11-15T07:02:14;14.80;99.90
76120;DHT22;64852;48.092;-1.640;2022-11-15T07:04:40;14.80;99.90
76120;DHT22;64852;48.092;-1.640;2022-11-15T07:07:06;14.80;99.90
76120;DHT22;64852;48.092;-1.640;2022-11-15T07:09:31;14.80;99.90
76120;DHT22;64852;48.092;-1.640;2022-11-15T07:11:57;15.00;99.90
76120;DHT22;64852;48.092;-1.640;2022-11-15T07:14:23;14.80;99.90
76120;DHT22;64852;48.092;-1.640;2022-11-15T07:16:48;14.70;99.90
76120;DHT22;64852;48.092;-1.640;2022-11-15T07:19:14;14.80;99.90
76120;DHT22;64852;48.092;-1.640;2022-11-15T07:21:39;14.90;99.90
76120;DHT22;64852;48.092;-1.640;2022-11-15T07:24:05;14.90;99.90
76120;DHT22;64852;48.092;-1.640;2022-11-15T07:26:31;14.90;99.90
76120;DHT22;64852;48.092;-1.640;2022-11-15T07:28:56;15.00;99.90
76120;DHT22;64852;48.092;-1.640;2022-11-15T07:31:22;15.00;99.90
76120;DHT22;64852;48.092;-1.640;2022-11-15T07:33:48;14.90;99.90
76120;DHT22;64852;48.092;-1.640;2022-11-15T07:36:13;15.00;99.90
76120;DHT22;64852;48.092;-1.640;2022-11-15T07:38:39;14.90;99.90
76120;DHT22;64852;48.092;-1.640;2022-11-15T07:41:05;14.90;99.90
76120;DHT22;64852;48.092;-1.640;2022-11-15T07:43:31;15.00;99.90
76120;DHT22;64852;48.092;-1.640;2022-11-15T07:46:05;15.20;99.90
76120;DHT22;64852;48.092;-1.640;2022-11-15T07:48:31;15.20;99.90
76120;DHT22;64852;48.092;-1.640;2022-11-15T07:50:56;15.20;99.90
76120;DHT22;64852;48.092;-1.640;2022-11-15T07:53:22;15.30;99.90
76120;DHT22;64852;48.092;-1.640;2022-11-15T07:55:48;15.20;99.90
76120;DHT22;64852;48.092;-1.640;2022-11-15T07:58:14;15.20;99.90
76120;DHT22;64852;48.092;-1.640;2022-11-15T08:00:39;15.10;99.90
76120;DHT22;64852;48.092;-1.640;2022-11-15T08:03:07;15.10;99.90
76120;DHT22;64852;48.092;-1.640;2022-11-15T08:05:35;15.00;99.90
76120;DHT22;64852;48.092;-1.640;2022-11-15T08:08:01;14.90;99.90
76120;DHT22;64852;48.092;-1.640;2022-11-15T08:10:27;15.10;99.90
76120;DHT22;64852;48.092;-1.640;2022-11-15T08:13:00;15.10;99.90
76120;DHT22;64852;48.092;-1.640;2022-11-15T08:15:27;15.20;99.90
76120;DHT22;64852;48.092;-1.640;2022-11-15T08:17:53;15.20;99.90
76120;DHT22;64852;48.092;-1.640;2022-11-15T08:20:19;15.20;99.90
76120;DHT22;64852;48.092;-1.640;2022-11-15T08:22:45;15.00;99.90
76120;DHT22;64852;48.092;-1.640;2022-11-15T08:25:12;15.00;99.90
76120;DHT22;64852;48.092;-1.640;2022-11-15T08:27:38;15.10;99.90
76120;DHT22;64852;48.092;-1.640;2022-11-15T08:30:04;15.10;99.90
76120;DHT22;64852;48.092;-1.640;2022-11-15T08:32:30;15.10;99.90
76120;DHT22;64852;48.092;-1.640;2022-11-15T08:34:56;15.30;99.90
76120;DHT22;64852;48.092;-1.640;2022-11-15T08:37:21;15.30;99.90
76120;DHT22;64852;48.092;-1.640;2022-11-15T08:39:47;15.10;99.90
76120;DHT22;64852;48.092;-1.640;2022-11-15T08:42:13;15.10;99.90
76120;DHT22;64852;48.092;-1.640;2022-11-15T08:44:40;15.10;99.90
76120;DHT22;64852;48.092;-1.640;2022-11-15T08:47:05;15.20;99.90
76120;DHT22;64852;48.092;-1.640;2022-11-15T08:49:31;15.10;99.90
76120;DHT22;64852;48.092;-1.640;2022-11-15T08:51:56;15.00;99.90
76120;DHT22;64852;48.092;-1.640;2022-11-15T08:54:22;15.20;99.90
76120;DHT22;64852;48.092;-1.640;2022-11-15T08:56:48;15.10;99.90
76120;DHT22;64852;48.092;-1.640;2022-11-15T08:59:13;15.10;99.90
76120;DHT22;64852;48.092;-1.640;2022-11-15T09:01:39;15.30;99.90
76120;DHT22;64852;48.092;-1.640;2022-11-15T09:04:04;15.30;99.90
76120;DHT22;64852;48.092;-1.640;2022-11-15T09:06:31;15.30;99.90
76120;DHT22;64852;48.092;-1.640;2022-11-15T09:08:56;15.20;99.90
76120;DHT22;64852;48.092;-1.640;2022-11-15T09:11:22;15.30;99.90
76120;DHT22;64852;48.092;-1.640;2022-11-15T09:13:49;15.30;99.90
76120;DHT22;64852;48.092;-1.640;2022-11-15T09:16:14;15.30;99.90
76120;DHT22;64852;48.092;-1.640;2022-11-15T09:18:41;15.40;99.90
76120;DHT22;64852;48.092;-1.640;2022-11-15T09:21:06;15.40;99.90
76120;DHT22;64852;48.092;-1.640;2022-11-15T09:23:32;15.40;99.90
76120;DHT22;64852;48.092;-1.640;2022-11-15T09:26:05;15.30;99.90
76120;DHT22;64852;48.092;-1.640;2022-11-15T09:28:32;15.30;99.90
76120;DHT22;64852;48.092;-1.640;2022-11-15T09:30:59;15.30;99.90
76120;DHT22;64852;48.092;-1.640;2022-11-15T09:33:25;15.40;99.90
76120;DHT22;64852;48.092;-1.640;2022-11-15T09:35:51;15.60;99.90
76120;DHT22;64852;48.092;-1.640;2022-11-15T09:38:17;15.70;99.90
76120;DHT22;64852;48.092;-1.640;2022-11-15T09:40:43;15.60;99.90
76120;DHT22;64852;48.092;-1.640;2022-11-15T09:48:33;15.70;99.90
76120;DHT22;64852;48.092;-1.640;2022-11-15T09:51:04;15.60;99.90
76120;DHT22;64852;48.092;-1.640;2022-11-15T09:53:37;15.70;99.90
76120;DHT22;64852;48.092;-1.640;2022-11-15T09:56:20;15.70;99.90
76120;DHT22;64852;48.092;-1.640;2022-11-15T09:59:09;15.70;99.90
76120;DHT22;64852;48.092;-1.640;2022-11-15T10:04:39;15.80;99.90
76120;DHT22;64852;48.092;-1.640;2022-11-15T10:10:00;15.80;99.90
76120;DHT22;64852;48.092;-1.640;2022-11-15T10:12:27;15.70;99.90
76120;DHT22;64852;48.092;-1.640;2022-11-15T10:15:10;15.70;99.90
76120;DHT22;64852;48.092;-1.640;2022-11-15T10:22:56;15.70;99.90
76120;DHT22;64852;48.092;-1.640;2022-11-15T10:25:31;15.80;99.90
76120;DHT22;64852;48.092;-1.640;2022-11-15T10:28:16;15.70;99.90
76120;DHT22;64852;48.092;-1.640;2022-11-15T10:30:45;15.70;99.90
76120;DHT22;64852;48.092;-1.640;2022-11-15T10:35:39;15.70;99.90
76120;DHT22;64852;48.092;-1.640;2022-11-15T10:38:10;15.80;99.90
76120;DHT22;64852;48.092;-1.640;2022-11-15T10:40:37;15.80;99.90
76120;DHT22;64852;48.092;-1.640;2022-11-15T10:43:21;15.90;99.90
76120;DHT22;64852;48.092;-1.640;2022-11-15T10:45:47;15.80;99.90
76120;DHT22;64852;48.092;-1.640;2022-11-15T10:50:44;15.90;99.90
76120;DHT22;64852;48.092;-1.640;2022-11-15T10:55:52;16.00;99.90
76120;DHT22;64852;48.092;-1.640;2022-11-15T11:03:39;16.30;99.90
76120;DHT22;64852;48.092;-1.640;2022-11-15T11:06:09;16.40;99.90
76120;DHT22;64852;48.092;-1.640;2022-11-15T11:08:36;16.40;99.90
76120;DHT22;64852;48.092;-1.640;2022-11-15T11:11:03;16.50;99.90
76120;DHT22;64852;48.092;-1.640;2022-11-15T11:13:35;16.70;99.90
76120;DHT22;64852;48.092;-1.640;2022-11-15T11:24:27;16.90;99.90
76120;DHT22;64852;48.092;-1.640;2022-11-15T11:27:07;17.10;99.90
76120;DHT22;64852;48.092;-1.640;2022-11-15T11:42:41;17.50;99.90
76120;DHT22;64852;48.092;-1.640;2022-11-15T11:45:26;17.60;99.90
76120;DHT22;64852;48.092;-1.640;2022-11-15T11:48:14;17.80;99.90
76120;DHT22;64852;48.092;-1.640;2022-11-15T11:50:45;17.80;99.90
76120;DHT22;64852;48.092;-1.640;2022-11-15T11:54:00;17.80;99.90
76120;DHT22;64852;48.092;-1.640;2022-11-15T11:56:04;18.00;99.90
76120;DHT22;64852;48.092;-1.640;2022-11-15T11:58:36;18.20;99.90
76120;DHT22;64852;48.092;-1.640;2022-11-15T12:01:26;18.30;99.90
76120;DHT22;64852;48.092;-1.640;2022-11-15T12:07:03;18.40;99.90
76120;DHT22;64852;48.092;-1.640;2022-11-15T12:09:31;18.70;99.90
76120;DHT22;64852;48.092;-1.640;2022-11-15T12:12:35;18.90;99.90
76120;DHT22;64852;48.092;-1.640;2022-11-15T12:15:10;19.00;99.90
76120;DHT22;64852;48.092;-1.640;2022-11-15T12:17:40;18.90;99.90
76120;DHT22;64852;48.092;-1.640;2022-11-15T12:20:16;19.00;99.90
76120;DHT22;64852;48.092;-1.640;2022-11-15T12:25:31;18.50;99.90
76120;DHT22;64852;48.092;-1.640;2022-11-15T12:30:50;17.60;99.90
76120;DHT22;64852;48.092;-1.640;2022-11-15T12:33:43;17.10;99.90
76120;DHT22;64852;48.092;-1.640;2022-11-15T12:36:29;16.80;99.90
76120;DHT22;64852;48.092;-1.640;2022-11-15T12:41:33;16.80;99.90
76120;DHT22;64852;48.092;-1.640;2022-11-15T12:44:00;17.00;99.90
76120;DHT22;64852;48.092;-1.640;2022-11-15T12:48:56;17.30;99.90
76120;DHT22;64852;48.092;-1.640;2022-11-15T13:17:52;17.00;99.90
76120;DHT22;64852;48.092;-1.640;2022-11-15T13:20:19;17.00;99.90
76120;DHT22;64852;48.092;-1.640;2022-11-15T13:22:48;17.10;99.90
76120;DHT22;64852;48.092;-1.640;2022-11-15T13:27:54;16.60;99.90
76120;DHT22;64852;48.092;-1.640;2022-11-15T13:30:25;16.70;99.90
76120;DHT22;64852;48.092;-1.640;2022-11-15T13:32:52;17.10;99.90
76120;DHT22;64852;48.092;-1.640;2022-11-15T13:35:21;17.30;99.90
76120;DHT22;64852;48.092;-1.640;2022-11-15T13:37:48;17.30;99.90
76120;DHT22;64852;48.092;-1.640;2022-11-15T13:40:26;17.70;99.90
76120;DHT22;64852;48.092;-1.640;2022-11-15T13:42:56;17.60;99.90
76120;DHT22;64852;48.092;-1.640;2022-11-15T13:45:22;17.90;99.90
76120;DHT22;64852;48.092;-1.640;2022-11-15T13:47:53;17.90;99.90
76120;DHT22;64852;48.092;-1.640;2022-11-15T13:50:21;17.90;99.90
76120;DHT22;64852;48.092;-1.640;2022-11-15T13:52:50;17.80;99.90
76120;DHT22;64852;48.092;-1.640;2022-11-15T13:55:19;17.80;99.90
76120;DHT22;64852;48.092;-1.640;2022-11-15T13:57:59;17.50;99.90
76120;DHT22;64852;48.092;-1.640;2022-11-15T14:00:44;17.50;99.90
76120;DHT22;64852;48.092;-1.640;2022-11-15T14:03:25;17.30;99.90
76120;DHT22;64852;48.092;-1.640;2022-11-15T14:06:07;16.70;99.90
76120;DHT22;64852;48.092;-1.640;2022-11-15T14:08:35;16.70;99.90
76120;DHT22;64852;48.092;-1.640;2022-11-15T14:13:39;16.80;99.90
76120;DHT22;64852;48.092;-1.640;2022-11-15T14:16:20;16.80;99.90
76120;DHT22;64852;48.092;-1.640;2022-11-15T14:18:51;16.60;99.90
76120;DHT22;64852;48.092;-1.640;2022-11-15T14:21:18;16.60;99.90
76120;DHT22;64852;48.092;-1.640;2022-11-15T14:23:44;17.00;99.90
76120;DHT22;64852;48.092;-1.640;2022-11-15T14:26:31;17.30;99.90
76120;DHT22;64852;48.092;-1.640;2022-11-15T14:28:56;17.20;99.90
76120;DHT22;64852;48.092;-1.640;2022-11-15T14:31:22;17.20;99.90
76120;DHT22;64852;48.092;-1.640;2022-11-15T14:33:48;17.00;99.90
76120;DHT22;64852;48.092;-1.640;2022-11-15T14:36:16;17.10;99.90
76120;DHT22;64852;48.092;-1.640;2022-11-15T14:38:43;17.30;99.90
76120;DHT22;64852;48.092;-1.640;2022-11-15T14:41:18;17.30;99.90
76120;DHT22;64852;48.092;-1.640;2022-11-15T14:43:44;17.30;99.90
76120;DHT22;64852;48.092;-1.640;2022-11-15T14:46:10;17.00;99.90
76120;DHT22;64852;48.092;-1.640;2022-11-15T14:48:35;17.10;99.90
76120;DHT22;64852;48.092;-1.640;2022-11-15T14:51:02;16.80;99.90
76120;DHT22;64852;48.092;-1.640;2022-11-15T14:53:27;16.70;99.90
76120;DHT22;64852;48.092;-1.640;2022-11-15T14:55:53;16.60;99.90
76120;DHT22;64852;48.092;-1.640;2022-11-15T14:58:18;16.60;99.90
76120;DHT22;64852;48.092;-1.640;2022-11-15T15:00:44;16.30;99.90
76120;DHT22;64852;48.092;-1.640;2022-11-15T15:03:10;16.20;99.90
76120;DHT22;64852;48.092;-1.640;2022-11-15T15:05:41;16.40;99.90
76120;DHT22;64852;48.092;-1.640;2022-11-15T15:08:07;16.10;99.90
76120;DHT22;64852;48.092;-1.640;2022-11-15T15:10:44;16.00;99.90
76120;DHT22;64852;48.092;-1.640;2022-11-15T15:15:42;15.80;99.90
76120;DHT22;64852;48.092;-1.640;2022-11-15T15:18:07;15.80;99.90
76120;DHT22;64852;48.092;-1.640;2022-11-15T15:20:34;16.00;99.90
76120;DHT22;64852;48.092;-1.640;2022-11-15T15:23:00;16.20;99.90
76120;DHT22;64852;48.092;-1.640;2022-11-15T15:25:29;16.10;99.90
76120;DHT22;64852;48.092;-1.640;2022-11-15T15:27:56;15.90;99.90
76120;DHT22;64852;48.092;-1.640;2022-11-15T15:30:26;15.70;99.90
76120;DHT22;64852;48.092;-1.640;2022-11-15T15:32:52;15.60;99.90
76120;DHT22;64852;48.092;-1.640;2022-11-15T15:35:19;15.80;99.90
76120;DHT22;64852;48.092;-1.640;2022-11-15T15:37:46;15.70;99.90
76120;DHT22;64852;48.092;-1.640;2022-11-15T15:40:21;15.70;99.90
76120;DHT22;64852;48.092;-1.640;2022-11-15T15:42:48;15.80;99.90
76120;DHT22;64852;48.092;-1.640;2022-11-15T15:45:16;15.70;99.90
76120;DHT22;64852;48.092;-1.640;2022-11-15T15:47:42;15.70;99.90
76120;DHT22;64852;48.092;-1.640;2022-11-15T15:52:45;16.00;99.90
76120;DHT22;64852;48.092;-1.640;2022-11-15T15:55:11;15.80;99.90
76120;DHT22;64852;48.092;-1.640;2022-11-15T15:57:37;15.60;99.90
76120;DHT22;64852;48.092;-1.640;2022-11-15T16:00:04;15.70;99.90
76120;DHT22;64852;48.092;-1.640;2022-11-15T16:02:30;15.60;99.90
76120;DHT22;64852;48.092;-1.640;2022-11-15T16:04:56;15.70;99.90
76120;DHT22;64852;48.092;-1.640;2022-11-15T16:07:22;15.60;99.90
76120;DHT22;64852;48.092;-1.640;2022-11-15T16:09:53;15.60;99.90
76120;DHT22;64852;48.092;-1.640;2022-11-15T16:12:26;15.60;99.90
76120;DHT22;64852;48.092;-1.640;2022-11-15T16:14:51;15.80;99.90
76120;DHT22;64852;48.092;-1.640;2022-11-15T16:17:19;15.80;99.90
76120;DHT22;64852;48.092;-1.640;2022-11-15T16:19:46;15.90;99.90
76120;DHT22;64852;48.092;-1.640;2022-11-15T16:22:11;15.90;99.90
76120;DHT22;64852;48.092;-1.640;2022-11-15T16:24:37;15.90;99.90
76120;DHT22;64852;48.092;-1.640;2022-11-15T16:27:02;15.80;99.90
76120;DHT22;64852;48.092;-1.640;2022-11-15T16:29:28;15.80;99.90
76120;DHT22;64852;48.092;-1.640;2022-11-15T16:31:54;15.60;99.90
76120;DHT22;64852;48.092;-1.640;2022-11-15T16:34:19;15.70;99.90
76120;DHT22;64852;48.092;-1.640;2022-11-15T16:36:45;15.70;99.90
76120;DHT22;64852;48.092;-1.640;2022-11-15T16:39:12;15.70;99.90
76120;DHT22;64852;48.092;-1.640;2022-11-15T16:41:43;15.70;99.90
76120;DHT22;64852;48.092;-1.640;2022-11-15T16:44:12;15.60;99.90
76120;DHT22;64852;48.092;-1.640;2022-11-15T16:46:38;15.60;99.90
76120;DHT22;64852;48.092;-1.640;2022-11-15T16:49:14;15.60;99.90
76120;DHT22;64852;48.092;-1.640;2022-11-15T16:51:41;15.60;99.90
76120;DHT22;64852;48.092;-1.640;2022-11-15T16:54:09;15.60;99.90
76120;DHT22;64852;48.092;-1.640;2022-11-15T16:56:35;15.60;99.90
76120;DHT22;64852;48.092;-1.640;2022-11-15T16:59:01;15.60;99.90
76120;DHT22;64852;48.092;-1.640;2022-11-15T17:01:28;15.50;99.90
76120;DHT22;64852;48.092;-1.640;2022-11-15T17:03:54;15.40;99.90
76120;DHT22;64852;48.092;-1.640;2022-11-15T17:06:21;15.40;99.90
76120;DHT22;64852;48.092;-1.640;2022-11-15T17:08:47;15.30;99.90
76120;DHT22;64852;48.092;-1.640;2022-11-15T17:11:18;15.40;99.90
76120;DHT22;64852;48.092;-1.640;2022-11-15T17:13:44;15.20;99.90
76120;DHT22;64852;48.092;-1.640;2022-11-15T17:16:12;15.20;99.90
76120;DHT22;64852;48.092;-1.640;2022-11-15T17:18:38;15.20;99.90
76120;DHT22;64852;48.092;-1.640;2022-11-15T17:21:11;15.20;99.90
76120;DHT22;64852;48.092;-1.640;2022-11-15T17:23:37;15.10;99.90
76120;DHT22;64852;48.092;-1.640;2022-11-15T17:26:04;15.10;99.90
76120;DHT22;64852;48.092;-1.640;2022-11-15T17:28:33;15.10;99.90
76120;DHT22;64852;48.092;-1.640;2022-11-15T17:31:00;15.00;99.90
76120;DHT22;64852;48.092;-1.640;2022-11-15T17:33:26;15.10;99.90
76120;DHT22;64852;48.092;-1.640;2022-11-15T17:36:11;15.00;99.90
76120;DHT22;64852;48.092;-1.640;2022-11-15T17:38:37;15.10;99.90
76120;DHT22;64852;48.092;-1.640;2022-11-15T17:41:11;15.00;99.90
76120;DHT22;64852;48.092;-1.640;2022-11-15T17:43:37;14.90;99.90
76120;DHT22;64852;48.092;-1.640;2022-11-15T17:46:10;14.90;99.90